Time;durP1;ratioP1;P1;durP2;ratioP2;P2;SDS_P1;SDS_P2;PMS_P1;PMS_P2;Temp;Humidity;BMP_temperature;BMP_pressure;BME280_temperature;BME280_humidity;BME280_pressure;Samples;Min_cycle;Max_cycle;Signal;HPM_P1;HPM_P2
2023/10/29 00:00:10;;;;;;;10.13;4.72;;;10.50;99.90;;;;;;5079109;28;20005;-89
2023/10/29 00:02:35;;;;;;;6.20;3.33;;;10.50;99.90;;;;;;5078687;28;20044;-90
2023/10/29 00:05:01;;;;;;;7.50;3.60;;;10.40;99.90;;;;;;5078932;28;20021;-94
2023/10/29 00:07:26;;;;;;;7.72;3.10;;;10.50;99.90;;;;;;5078671;28;20063;-92
2023/10/29 00:09:52;;;;;;;11.85;4.25;;;10.50;99.90;;;;;;5078564;28;20089;-90
2023/10/29 00:12:19;;;;;;;3.25;2.95;;;10.50;99.90;;;;;;5078791;28;20025;-89
2023/10/29 00:14:44;;;;;;;7.18;3.42;;;10.50;99.90;;;;;;5078480;28;20013;-92
2023/10/29 00:17:10;;;;;;;10.40;3.83;;;10.50;99.90;;;;;;5077922;28;20035;-90
2023/10/29 00:19:35;;;;;;;11.85;3.70;;;10.50;99.90;;;;;;5077845;28;20013;-88
2023/10/29 00:22:01;;;;;;;5.10;3.65;;;10.50;99.90;;;;;;5077740;28;20048;-93
2023/10/29 00:24:27;;;;;;;5.90;3.35;;;10.50;99.90;;;;;;5055634;28;20052;-95
2023/10/29 00:26:55;;;;;;;8.05;3.97;;;10.50;99.90;;;;;;5076429;28;20100;-95
2023/10/29 00:29:24;;;;;;;9.93;4.35;;;10.50;99.90;;;;;;5076911;28;20049;-95
2023/10/29 00:31:49;;;;;;;8.48;3.95;;;10.50;99.90;;;;;;5078032;28;20153;-91
2023/10/29 00:34:30;;;;;;;8.07;3.58;;;10.50;99.90;;;;;;5077543;28;20045;-91
2023/10/29 00:37:11;;;;;;;8.57;3.92;;;10.60;99.90;;;;;;5077755;28;20047;-92
2023/10/29 00:39:42;;;;;;;11.63;3.95;;;10.50;99.90;;;;;;5078147;28;20088;-96
2023/10/29 00:42:09;;;;;;;8.93;4.00;;;10.60;99.90;;;;;;5077985;28;20029;-91
2023/10/29 00:44:37;;;;;;;6.72;3.13;;;10.60;99.90;;;;;;5077120;28;20017;-95
2023/10/29 00:47:06;;;;;;;7.30;4.05;;;10.60;99.90;;;;;;5077520;28;20085;-95
2023/10/29 00:49:36;;;;;;;5.00;3.10;;;10.60;99.90;;;;;;5065536;28;20268;-95
2023/10/29 00:52:02;;;;;;;5.95;3.33;;;10.60;99.90;;;;;;5056024;28;20111;-95
2023/10/29 00:54:28;;;;;;;8.73;3.50;;;10.50;99.90;;;;;;5058479;28;20033;-96
2023/10/29 00:57:01;;;;;;;6.90;3.15;;;10.60;99.90;;;;;;5060245;28;20037;-92
2023/10/29 00:59:31;;;;;;;5.45;3.55;;;10.50;99.90;;;;;;5097902;28;20035;-95
2023/10/29 01:01:57;;;;;;;3.27;2.70;;;10.60;99.90;;;;;;5081273;28;20029;-94
2023/10/29 01:04:23;;;;;;;6.22;2.92;;;10.60;99.90;;;;;;5097786;28;20339;-94
2023/10/29 01:06:52;;;;;;;4.10;3.15;;;10.60;99.90;;;;;;5098256;28;20020;-96
2023/10/29 01:09:25;;;;;;;3.00;2.58;;;10.60;99.90;;;;;;5097507;28;20020;-94
2023/10/29 01:11:51;;;;;;;9.15;2.88;;;10.60;99.90;;;;;;5097066;28;20088;-96
2023/10/29 01:14:24;;;;;;;5.25;2.60;;;10.60;99.90;;;;;;5095046;28;20040;-95
2023/10/29 01:16:51;;;;;;;7.78;3.25;;;10.60;99.90;;;;;;5096194;28;20048;-95
2023/10/29 01:19:17;;;;;;;4.10;2.80;;;10.60;99.90;;;;;;5094929;28;20044;-96
2023/10/29 01:21:44;;;;;;;6.75;3.40;;;10.60;99.90;;;;;;5095008;28;20031;-94
2023/10/29 01:24:14;;;;;;;5.63;3.55;;;10.60;99.90;;;;;;5077933;28;20041;-96
2023/10/29 01:26:40;;;;;;;12.23;4.35;;;10.60;99.90;;;;;;5095658;28;20027;-96
2023/10/29 01:29:06;;;;;;;7.25;3.35;;;10.60;99.90;;;;;;5112099;28;20035;-95
2023/10/29 01:31:32;;;;;;;6.88;3.90;;;10.50;99.90;;;;;;5096472;28;20044;-95
2023/10/29 01:33:57;;;;;;;13.38;4.20;;;10.50;99.90;;;;;;5097363;28;20091;-96
2023/10/29 01:36:23;;;;;;;4.78;3.72;;;10.50;99.90;;;;;;5098179;28;20041;-95
2023/10/29 01:38:50;;;;;;;7.50;3.97;;;10.50;99.90;;;;;;5098452;28;20067;-95
2023/10/29 01:41:16;;;;;;;7.55;5.00;;;10.50;99.90;;;;;;5081257;28;20040;-95
2023/10/29 01:43:42;;;;;;;7.35;4.22;;;10.50;99.90;;;;;;5098193;28;20016;-95
2023/10/29 01:46:08;;;;;;;8.27;4.93;;;10.50;99.90;;;;;;5096497;28;20060;-96
2023/10/29 01:48:34;;;;;;;12.50;5.20;;;10.50;99.90;;;;;;5096274;28;20029;-94
2023/10/29 01:51:05;;;;;;;13.00;5.13;;;10.50;99.90;;;;;;5098735;28;20103;-96
2023/10/29 01:53:31;;;;;;;9.30;6.18;;;10.50;99.90;;;;;;5098617;28;20028;-95
2023/10/29 01:55:58;;;;;;;11.15;5.72;;;10.50;99.90;;;;;;5098232;28;20040;-95
2023/10/29 01:58:24;;;;;;;6.93;4.72;;;10.40;99.90;;;;;;5080287;28;20043;-94
2023/10/29 02:00:55;;;;;;;8.98;5.10;;;10.40;99.90;;;;;;5098455;28;20048;-94
2023/10/29 02:03:20;;;;;;;7.50;4.07;;;10.40;99.90;;;;;;5098299;28;20060;-96
2023/10/29 02:05:48;;;;;;;10.32;4.93;;;10.40;99.90;;;;;;5080732;28;20440;-95
2023/10/29 02:08:14;;;;;;;6.20;4.50;;;10.40;99.90;;;;;;5098544;28;20037;-94
2023/10/29 02:10:39;;;;;;;8.75;4.43;;;10.40;99.90;;;;;;5099563;28;20008;-93
2023/10/29 02:13:09;;;;;;;9.13;4.00;;;10.40;99.90;;;;;;5100410;28;20088;-91
2023/10/29 02:15:35;;;;;;;9.63;3.95;;;10.40;99.90;;;;;;5100620;28;20097;-91
2023/10/29 02:18:00;;;;;;;8.23;3.85;;;10.40;99.90;;;;;;5100510;28;20013;-92
2023/10/29 02:20:29;;;;;;;7.38;3.35;;;10.40;99.90;;;;;;5100897;28;20028;-91
2023/10/29 02:22:55;;;;;;;7.80;3.75;;;10.40;99.90;;;;;;5100125;28;20051;-91
2023/10/29 02:25:21;;;;;;;7.07;3.30;;;10.40;99.90;;;;;;5100556;28;20044;-91
2023/10/29 02:27:48;;;;;;;7.65;3.67;;;10.40;99.90;;;;;;5082641;28;20074;-90
2023/10/29 02:30:14;;;;;;;8.25;3.15;;;10.40;99.90;;;;;;5100112;28;20017;-92
2023/10/29 02:32:40;;;;;;;9.73;3.53;;;10.40;99.90;;;;;;5082938;28;20048;-91
2023/10/29 02:35:08;;;;;;;9.95;3.20;;;10.40;99.90;;;;;;5098727;28;20056;-94
2023/10/29 02:37:40;;;;;;;8.23;3.13;;;10.40;99.90;;;;;;5099567;28;20286;-89
2023/10/29 02:40:08;;;;;;;7.32;2.90;;;10.40;99.90;;;;;;5100010;28;20055;-90
2023/10/29 02:42:35;;;;;;;9.13;3.42;;;10.40;99.90;;;;;;5082956;28;20004;-90
2023/10/29 02:45:01;;;;;;;9.02;3.75;;;10.40;99.90;;;;;;5099543;28;20052;-90
2023/10/29 02:47:28;;;;;;;6.00;3.10;;;10.40;99.90;;;;;;5099714;28;20021;-90
2023/10/29 02:49:53;;;;;;;4.57;2.97;;;10.40;99.90;;;;;;5099507;28;20040;-87
2023/10/29 02:52:24;;;;;;;7.57;3.88;;;10.40;99.90;;;;;;5100609;28;20055;-90
2023/10/29 02:54:50;;;;;;;;;;;10.40;99.90;;;;;;5100391;28;20024;-89
2023/10/29 02:57:17;;;;;;;7.53;3.03;;;10.40;99.90;;;;;;5099244;28;19904;-90
2023/10/29 02:59:45;;;;;;;8.77;3.88;;;10.40;99.90;;;;;;5099416;28;20047;-90
2023/10/29 03:02:11;;;;;;;6.70;3.88;;;10.40;99.90;;;;;;5100090;28;20027;-90
2023/10/29 03:04:40;;;;;;;10.65;4.05;;;10.40;99.90;;;;;;5099467;28;20029;-91
2023/10/29 03:07:05;;;;;;;6.00;3.53;;;10.40;99.90;;;;;;5099675;28;20047;-90
2023/10/29 03:09:32;;;;;;;5.82;3.38;;;10.40;99.90;;;;;;5099572;28;20017;-89
2023/10/29 03:11:57;;;;;;;9.60;4.20;;;10.40;99.90;;;;;;5099895;28;20032;-89
2023/10/29 03:14:23;;;;;;;9.00;2.97;;;10.40;99.90;;;;;;5099190;28;20039;-90
2023/10/29 03:16:49;;;;;;;6.72;3.28;;;10.30;99.90;;;;;;5098727;28;20025;-89
2023/10/29 03:19:15;;;;;;;6.10;3.08;;;10.30;99.90;;;;;;5082483;28;20017;-89
2023/10/29 03:21:40;;;;;;;9.65;3.33;;;10.30;99.90;;;;;;5099932;28;20051;-89
2023/10/29 03:24:06;;;;;;;10.95;3.03;;;10.30;99.90;;;;;;5099283;28;20012;-89
2023/10/29 03:26:32;;;;;;;7.78;2.80;;;10.30;99.90;;;;;;5098724;28;20031;-90
2023/10/29 03:28:57;;;;;;;12.25;2.90;;;10.20;99.90;;;;;;5098741;28;20019;-91
2023/10/29 03:31:23;;;;;;;6.95;2.65;;;10.20;99.90;;;;;;5098236;28;20021;-89
2023/10/29 03:33:49;;;;;;;9.13;2.58;;;10.20;99.90;;;;;;5098124;28;20044;-90
2023/10/29 03:36:15;;;;;;;7.03;2.15;;;10.20;99.90;;;;;;5099370;28;20033;-90
2023/10/29 03:38:43;;;;;;;8.25;1.85;;;10.20;99.90;;;;;;5098194;28;20017;-89
2023/10/29 03:41:22;;;;;;;3.67;1.90;;;10.20;99.90;;;;;;5098101;28;20017;-90
2023/10/29 03:43:51;;;;;;;4.18;1.70;;;10.10;99.90;;;;;;5114877;28;20016;-90
2023/10/29 03:46:16;;;;;;;4.90;1.50;;;10.10;99.90;;;;;;5097946;28;20027;-90
2023/10/29 03:48:45;;;;;;;2.20;1.38;;;10.10;99.90;;;;;;5097913;28;20040;-89
2023/10/29 03:51:12;;;;;;;5.53;2.20;;;10.00;99.90;;;;;;5097893;28;20036;-90
2023/10/29 03:53:38;;;;;;;3.90;1.90;;;10.00;99.90;;;;;;5097730;28;20012;-90
2023/10/29 03:56:04;;;;;;;2.05;1.73;;;10.00;99.90;;;;;;5097177;28;20077;-90
2023/10/29 03:58:30;;;;;;;7.53;1.40;;;9.90;99.90;;;;;;5093196;28;20023;-90
2023/10/29 04:00:56;;;;;;;4.15;1.80;;;9.90;99.90;;;;;;5094392;28;20017;-90
2023/10/29 04:03:22;;;;;;;4.03;1.63;;;9.80;99.90;;;;;;5078257;28;20021;-90
2023/10/29 04:05:48;;;;;;;3.90;1.33;;;9.80;99.90;;;;;;5094241;28;20016;-90
2023/10/29 04:08:13;;;;;;;5.85;1.67;;;9.80;99.90;;;;;;5094252;28;20021;-91
2023/10/29 04:10:39;;;;;;;4.85;1.60;;;9.80;99.90;;;;;;5094214;28;20051;-88
2023/10/29 04:13:05;;;;;;;5.38;1.67;;;9.80;99.90;;;;;;5094297;28;20036;-90
2023/10/29 04:15:30;;;;;;;4.72;1.40;;;9.80;99.90;;;;;;5078462;28;20033;-90
2023/10/29 04:17:56;;;;;;;5.20;1.30;;;9.80;99.90;;;;;;5078246;28;20032;-88
2023/10/29 04:20:23;;;;;;;5.20;1.40;;;9.80;99.90;;;;;;5079117;28;20040;-91
2023/10/29 04:22:49;;;;;;;3.60;1.50;;;9.80;99.90;;;;;;5095301;28;20020;-89
2023/10/29 04:25:14;;;;;;;7.55;1.42;;;9.70;99.90;;;;;;5095304;28;20016;-88
2023/10/29 04:27:41;;;;;;;5.78;1.75;;;9.70;99.90;;;;;;5078653;28;20024;-89
2023/10/29 04:30:19;;;;;;;5.82;1.60;;;9.70;99.90;;;;;;5094393;28;20024;-88
2023/10/29 04:32:46;;;;;;;6.85;3.05;;;9.60;99.90;;;;;;5078684;28;20017;-88
2023/10/29 04:35:12;;;;;;;7.13;1.92;;;9.60;99.90;;;;;;5061850;28;20025;-88
2023/10/29 04:37:38;;;;;;;7.75;1.63;;;9.60;99.90;;;;;;5095542;28;20089;-87
2023/10/29 04:40:04;;;;;;;5.82;2.05;;;9.60;99.90;;;;;;5078483;28;20021;-88
2023/10/29 04:42:31;;;;;;;5.07;1.90;;;9.60;99.90;;;;;;5079971;28;20021;-88
2023/10/29 04:44:57;;;;;;;9.63;2.22;;;9.50;99.90;;;;;;5079228;28;20020;-87
2023/10/29 04:47:22;;;;;;;6.38;2.10;;;9.50;99.90;;;;;;5121467;27;20036;-89
2023/10/29 04:49:48;;;;;;;5.15;2.20;;;9.50;99.90;;;;;;5083774;27;20024;-86
2023/10/29 04:52:14;;;;;;;6.40;1.90;;;9.50;99.90;;;;;;5095417;28;20108;-88
2023/10/29 04:54:42;;;;;;;5.30;2.20;;;9.50;99.90;;;;;;5078602;28;20055;-87
2023/10/29 04:57:09;;;;;;;7.53;2.17;;;9.50;99.90;;;;;;5078279;28;20033;-89
2023/10/29 04:59:36;;;;;;;3.75;2.25;;;9.50;99.90;;;;;;5078162;28;20032;-90
2023/10/29 05:02:03;;;;;;;9.90;1.95;;;9.50;99.90;;;;;;5094754;28;20009;-89
2023/10/29 05:04:29;;;;;;;4.95;1.67;;;9.50;99.90;;;;;;5095066;28;20025;-87
2023/10/29 05:06:55;;;;;;;6.18;1.70;;;9.50;99.90;;;;;;5093970;28;20016;-87
2023/10/29 05:09:22;;;;;;;3.78;1.50;;;9.40;99.90;;;;;;5094813;28;20021;-87
2023/10/29 05:11:48;;;;;;;5.10;1.40;;;9.40;99.90;;;;;;5094951;28;20012;-88
2023/10/29 05:14:16;;;;;;;9.60;1.88;;;9.40;99.90;;;;;;5095170;28;20013;-87
2023/10/29 05:16:42;;;;;;;6.22;1.55;;;9.40;99.90;;;;;;5094814;28;20031;-88
2023/10/29 05:19:09;;;;;;;3.75;1.40;;;9.40;99.90;;;;;;5095176;28;20813;-87
2023/10/29 05:21:36;;;;;;;6.95;1.60;;;9.40;99.90;;;;;;5095003;28;20088;-88
2023/10/29 05:24:02;;;;;;;5.75;1.58;;;9.30;99.90;;;;;;5078247;28;20013;-88
2023/10/29 05:26:30;;;;;;;4.55;1.10;;;9.30;99.90;;;;;;5078712;28;20025;-87
2023/10/29 05:28:56;;;;;;;6.60;2.28;;;9.30;99.90;;;;;;5078170;28;20040;-88
2023/10/29 05:31:23;;;;;;;7.63;1.90;;;9.30;99.90;;;;;;5077784;28;20028;-87
2023/10/29 05:33:49;;;;;;;7.30;2.38;;;9.30;99.90;;;;;;5077804;28;20060;-89
2023/10/29 05:36:14;;;;;;;7.20;1.38;;;9.30;99.90;;;;;;5077746;28;20021;-87
2023/10/29 05:38:40;;;;;;;2.97;1.27;;;9.30;99.90;;;;;;5078459;28;20032;-88
2023/10/29 05:41:07;;;;;;;4.90;1.25;;;9.20;99.90;;;;;;5094649;28;20036;-87
2023/10/29 05:43:41;;;;;;;6.38;1.48;;;9.20;99.90;;;;;;5095482;28;20090;-86
2023/10/29 05:46:14;;;;;;;4.85;1.23;;;9.20;99.90;;;;;;5078491;28;20021;-88
2023/10/29 05:48:40;;;;;;;7.63;1.27;;;9.20;99.90;;;;;;5078080;28;20025;-86
2023/10/29 05:51:06;;;;;;;7.00;1.25;;;9.20;99.90;;;;;;5094564;28;20001;-86
2023/10/29 05:53:32;;;;;;;8.90;1.23;;;9.20;99.90;;;;;;5078405;28;20040;-87
2023/10/29 05:56:04;;;;;;;4.72;1.40;;;9.10;99.90;;;;;;5084701;28;20033;-87
2023/10/29 05:58:37;;;;;;;4.15;1.00;;;9.10;99.90;;;;;;5078562;28;20017;-86
2023/10/29 06:01:04;;;;;;;6.72;1.30;;;9.10;99.90;;;;;;5094999;28;20040;-88
2023/10/29 06:03:30;;;;;;;5.47;1.40;;;9.10;99.90;;;;;;5094800;28;20036;-87
2023/10/29 06:05:56;;;;;;;6.35;1.58;;;9.10;99.90;;;;;;5094423;28;20009;-87
2023/10/29 06:08:22;;;;;;;3.55;1.30;;;9.10;99.90;;;;;;5078133;28;20051;-88
2023/10/29 06:10:50;;;;;;;4.57;1.10;;;9.10;99.90;;;;;;5094236;28;20077;-89
2023/10/29 06:13:16;;;;;;;5.65;1.20;;;9.10;99.90;;;;;;5077921;28;20013;-87
2023/10/29 06:15:41;;;;;;;9.45;1.20;;;9.10;99.90;;;;;;5077552;28;20025;-89
2023/10/29 06:18:07;;;;;;;6.78;1.20;;;9.10;99.90;;;;;;5079275;28;20017;-89
2023/10/29 06:20:33;;;;;;;3.17;1.25;;;9.00;99.90;;;;;;5096375;28;20017;-87
2023/10/29 06:22:59;;;;;;;6.63;1.60;;;9.10;99.90;;;;;;5096771;28;20029;-88
2023/10/29 06:25:25;;;;;;;4.25;1.13;;;9.10;99.90;;;;;;5080763;28;20016;-89
2023/10/29 06:27:51;;;;;;;5.00;1.23;;;9.00;99.90;;;;;;5080592;28;20025;-90
2023/10/29 06:30:16;;;;;;;5.45;1.35;;;9.00;99.90;;;;;;5097027;28;20024;-90
2023/10/29 06:32:43;;;;;;;4.97;1.30;;;9.00;99.90;;;;;;5096972;28;20017;-89
2023/10/29 06:35:09;;;;;;;5.47;1.20;;;9.00;99.90;;;;;;5097254;28;20052;-87
2023/10/29 06:37:35;;;;;;;6.43;1.20;;;8.90;99.90;;;;;;5097158;28;20044;-91
2023/10/29 06:40:03;;;;;;;6.35;2.55;;;8.90;99.90;;;;;;5096717;28;20012;-90
2023/10/29 06:42:28;;;;;;;9.65;1.90;;;8.90;99.90;;;;;;5096506;28;20021;-91
2023/10/29 06:44:54;;;;;;;5.13;1.08;;;8.90;99.90;;;;;;5080513;28;20040;-90
2023/10/29 06:47:20;;;;;;;5.70;1.15;;;8.90;99.90;;;;;;5079671;28;20032;-88
2023/10/29 06:49:45;;;;;;;6.63;1.33;;;8.90;99.90;;;;;;5096543;28;20032;-89
2023/10/29 06:52:11;;;;;;;3.63;1.02;;;8.80;99.90;;;;;;5096443;28;20041;-89
2023/10/29 06:54:36;;;;;;;4.97;1.30;;;8.80;99.90;;;;;;5080502;28;20013;-90
2023/10/29 06:57:04;;;;;;;5.75;1.00;;;8.80;99.90;;;;;;5079831;28;20044;-89
2023/10/29 06:59:33;;;;;;;4.07;1.25;;;8.80;99.90;;;;;;5079972;28;20009;-89
2023/10/29 07:01:59;;;;;;;8.45;1.20;;;8.80;99.90;;;;;;5080234;28;20013;-90
2023/10/29 07:04:25;;;;;;;5.78;1.02;;;8.80;99.90;;;;;;5096309;28;20024;-89
2023/10/29 07:06:51;;;;;;;6.53;1.08;;;8.80;99.90;;;;;;5080184;28;20087;-86
2023/10/29 07:09:18;;;;;;;4.78;1.00;;;8.70;99.90;;;;;;5080024;28;20021;-88
2023/10/29 07:11:44;;;;;;;3.80;1.10;;;8.70;99.90;;;;;;5087270;28;20024;-89
2023/10/29 07:14:11;;;;;;;5.90;1.67;;;8.70;99.90;;;;;;5090119;28;20047;-89
2023/10/29 07:16:37;;;;;;;3.88;0.88;;;8.70;99.90;;;;;;5090435;28;20040;-91
2023/10/29 07:19:04;;;;;;;12.50;1.48;;;8.70;99.90;;;;;;5092101;28;20009;-90
2023/10/29 07:21:30;;;;;;;8.80;1.23;;;8.60;99.90;;;;;;5090778;28;20040;-90
2023/10/29 07:23:55;;;;;;;5.70;1.95;;;8.60;99.90;;;;;;5088057;28;20013;-88
2023/10/29 07:26:21;;;;;;;3.80;1.13;;;8.60;99.90;;;;;;5092327;28;20016;-95
2023/10/29 07:28:47;;;;;;;4.32;0.98;;;8.60;99.90;;;;;;5090502;28;20014;-90
2023/10/29 07:31:13;;;;;;;6.72;1.05;;;8.60;99.90;;;;;;5088886;28;20013;-92
2023/10/29 07:33:38;;;;;;;11.30;1.48;;;8.60;99.90;;;;;;5090279;28;20029;-89
2023/10/29 07:36:04;;;;;;;5.75;1.40;;;8.60;99.90;;;;;;5090002;28;20059;-91
2023/10/29 07:38:30;;;;;;;6.03;1.58;;;8.70;99.90;;;;;;5087298;28;20074;-90
2023/10/29 07:40:56;;;;;;;6.70;1.70;;;8.70;99.90;;;;;;5091589;28;20025;-89
2023/10/29 07:43:22;;;;;;;6.80;1.58;;;8.70;99.90;;;;;;5082444;28;20058;-91
2023/10/29 07:45:51;;;;;;;6.88;1.80;;;8.70;99.90;;;;;;5096439;28;20021;-90
2023/10/29 07:48:18;;;;;;;8.68;1.90;;;8.80;99.90;;;;;;5098368;28;20017;-93
2023/10/29 07:50:52;;;;;;;4.75;1.70;;;8.70;99.90;;;;;;5096220;28;20005;-92
2023/10/29 07:53:19;;;;;;;4.75;1.67;;;8.80;99.90;;;;;;5094231;28;20032;-91
2023/10/29 07:55:45;;;;;;;9.38;3.25;;;8.80;99.90;;;;;;5093116;28;20032;-91
2023/10/29 07:58:10;;;;;;;11.90;2.22;;;8.90;99.90;;;;;;5095497;28;20009;-92
2023/10/29 08:00:36;;;;;;;9.38;2.13;;;8.90;99.90;;;;;;5095741;28;20024;-92
2023/10/29 08:03:02;;;;;;;7.85;1.83;;;8.90;99.90;;;;;;5095616;28;20021;-95
2023/10/29 08:05:27;;;;;;;6.32;1.85;;;8.90;99.90;;;;;;5093462;28;20017;-92
2023/10/29 08:07:53;;;;;;;5.47;1.90;;;8.90;99.90;;;;;;5090846;28;20025;-94
2023/10/29 08:10:19;;;;;;;6.95;2.15;;;9.00;99.90;;;;;;5095378;28;20025;-92
2023/10/29 08:12:44;;;;;;;8.00;2.42;;;9.00;99.90;;;;;;5092410;28;20024;-93
2023/10/29 08:15:10;;;;;;;7.03;1.90;;;9.10;99.90;;;;;;5089858;28;20048;-93
2023/10/29 08:17:36;;;;;;;8.75;2.75;;;9.10;99.90;;;;;;5090939;28;20047;-91
2023/10/29 08:20:02;;;;;;;10.60;2.35;;;9.20;99.90;;;;;;5092607;28;20028;-92
2023/10/29 08:22:28;;;;;;;4.40;1.60;;;9.20;99.90;;;;;;5089608;28;20031;-93
2023/10/29 08:24:54;;;;;;;15.98;6.75;;;9.30;99.90;;;;;;5092689;28;20028;-95
2023/10/29 08:27:20;;;;;;;83.00;30.92;;;9.40;99.90;;;;;;5094163;28;20016;-92
2023/10/29 08:29:45;;;;;;;10.88;3.97;;;9.50;99.90;;;;;;5077737;28;20029;-95
2023/10/29 08:32:12;;;;;;;27.63;10.10;;;9.50;99.90;;;;;;5083490;28;20024;-96
2023/10/29 08:34:38;;;;;;;10.45;4.07;;;9.60;99.90;;;;;;5089353;28;20040;-96
2023/10/29 08:37:04;;;;;;;8.18;2.10;;;9.60;99.90;;;;;;5085686;28;20090;-95
2023/10/29 08:39:31;;;;;;;8.48;1.90;;;9.70;99.90;;;;;;5081294;28;20024;-95
2023/10/29 08:41:57;;;;;;;11.85;2.92;;;9.70;99.90;;;;;;5076603;28;20029;-95
2023/10/29 08:44:22;;;;;;;10.75;2.50;;;9.80;99.90;;;;;;5076123;28;20035;-95
2023/10/29 08:46:48;;;;;;;8.23;2.40;;;9.90;99.90;;;;;;5084073;28;20063;-96
2023/10/29 08:49:14;;;;;;;11.27;2.60;;;10.00;99.90;;;;;;5091338;28;20048;-93
2023/10/29 08:51:40;;;;;;;7.32;2.38;;;10.00;99.90;;;;;;5092334;28;20024;-96
2023/10/29 08:54:06;;;;;;;10.45;3.38;;;10.10;99.90;;;;;;5090867;28;20029;-95
2023/10/29 08:56:35;;;;;;;7.15;1.90;;;10.20;99.90;;;;;;5090154;28;20032;-96
2023/10/29 08:59:05;;;;;;;7.13;1.83;;;10.30;99.90;;;;;;5088108;28;20061;-94
2023/10/29 09:01:32;;;;;;;8.00;1.90;;;10.40;99.90;;;;;;5093160;28;20025;-96
2023/10/29 09:03:58;;;;;;;10.50;3.38;;;10.50;99.90;;;;;;5092306;28;20025;-96
2023/10/29 09:06:24;;;;;;;6.97;2.40;;;10.60;99.90;;;;;;5093222;28;20024;-92
2023/10/29 09:08:50;;;;;;;19.27;7.05;;;10.70;99.90;;;;;;5096525;28;20067;-89
2023/10/29 09:11:16;;;;;;;9.23;3.45;;;10.80;99.90;;;;;;5094609;28;20025;-96
2023/10/29 09:13:41;;;;;;;9.88;1.60;;;10.90;99.90;;;;;;5092204;28;20055;-95
2023/10/29 09:16:08;;;;;;;8.63;2.40;;;11.00;99.90;;;;;;5093217;28;20064;-95
2023/10/29 09:18:33;;;;;;;6.97;1.60;;;11.20;99.90;;;;;;5083796;28;20031;-96
2023/10/29 09:20:59;;;;;;;10.18;1.50;;;11.20;99.90;;;;;;5080734;28;20474;-95
2023/10/29 09:23:25;;;;;;;10.68;1.70;;;11.30;99.90;;;;;;5083357;28;20017;-95
2023/10/29 09:25:51;;;;;;;8.35;1.80;;;11.40;99.90;;;;;;5081386;28;20017;-94
2023/10/29 09:28:17;;;;;;;8.20;1.70;;;11.50;99.90;;;;;;5076626;28;20005;-95
2023/10/29 09:30:42;;;;;;;6.75;1.70;;;11.60;99.90;;;;;;5069585;28;20039;-96
2023/10/29 09:33:09;;;;;;;7.03;1.60;;;11.70;99.90;;;;;;5075807;28;20060;-92
2023/10/29 09:35:36;;;;;;;8.40;2.08;;;11.80;99.90;;;;;;5086931;28;20037;-94
2023/10/29 09:38:02;;;;;;;10.50;2.33;;;11.90;99.90;;;;;;5096958;28;20012;-91
2023/10/29 09:40:27;;;;;;;10.07;2.20;;;12.00;99.90;;;;;;5097142;28;20020;-90
2023/10/29 09:42:55;;;;;;;9.00;1.77;;;12.10;99.90;;;;;;5091970;28;20019;-89
2023/10/29 09:45:25;;;;;;;13.50;1.85;;;12.20;99.90;;;;;;5084153;28;20009;-90
2023/10/29 09:47:52;;;;;;;5.93;1.90;;;12.30;99.90;;;;;;5049144;28;20519;-94
2023/10/29 09:50:22;;;;;;;5.30;1.83;;;12.30;99.90;;;;;;5061908;28;20098;-96
2023/10/29 09:52:55;;;;;;;10.75;2.00;;;12.30;99.90;;;;;;5062151;28;20024;-96
2023/10/29 09:55:22;;;;;;;4.38;1.60;;;12.30;99.90;;;;;;5063741;28;20116;-96
2023/10/29 09:57:49;;;;;;;10.52;1.63;;;12.30;99.90;;;;;;5067710;28;20047;-95
2023/10/29 10:00:17;;;;;;;12.48;2.92;;;12.30;99.90;;;;;;5068671;28;20021;-95
2023/10/29 10:02:51;;;;;;;4.95;1.92;;;12.30;99.90;;;;;;5068378;28;20021;-94
2023/10/29 10:05:21;;;;;;;11.35;1.90;;;12.40;99.90;;;;;;5061933;28;20021;-96
2023/10/29 10:07:48;;;;;;;13.65;1.85;;;12.40;99.90;;;;;;5064748;28;20033;-94
2023/10/29 10:10:14;;;;;;;10.65;1.73;;;12.50;99.90;;;;;;5077553;28;20505;-95
2023/10/29 10:12:48;;;;;;;9.10;1.88;;;12.50;99.90;;;;;;5079898;28;20060;-94
2023/10/29 10:15:15;;;;;;;7.45;1.73;;;12.50;99.90;;;;;;5078313;28;20039;-94
2023/10/29 10:17:50;;;;;;;5.13;1.73;;;12.50;99.90;;;;;;5079207;28;20036;-94
2023/10/29 10:20:20;;;;;;;8.98;1.73;;;12.50;99.90;;;;;;5081663;28;20058;-94
2023/10/29 10:22:55;;;;;;;10.82;1.75;;;12.50;99.90;;;;;;5076795;28;20115;-93
2023/10/29 10:25:23;;;;;;;10.38;2.10;;;12.60;99.90;;;;;;5084786;28;20084;-95
2023/10/29 10:27:54;;;;;;;13.25;1.77;;;12.60;99.90;;;;;;5067161;28;20035;-96
2023/10/29 10:30:33;;;;;;;5.93;1.52;;;12.70;99.90;;;;;;5065357;28;20017;-95
2023/10/29 10:33:13;;;;;;;7.00;1.75;;;12.70;99.90;;;;;;5069092;28;20028;-95
2023/10/29 10:35:40;;;;;;;11.18;2.33;;;12.80;99.90;;;;;;5067738;28;20555;-96
2023/10/29 10:38:06;;;;;;;9.60;2.45;;;12.80;99.90;;;;;;5072537;28;20048;-96
2023/10/29 10:40:32;;;;;;;9.68;2.42;;;12.90;99.90;;;;;;5069628;28;20033;-92
2023/10/29 10:42:58;;;;;;;8.20;2.25;;;13.00;99.90;;;;;;5067720;28;20124;-95
2023/10/29 10:45:26;;;;;;;9.10;2.17;;;13.10;99.90;;;;;;5065689;28;20545;-94
2023/10/29 10:48:00;;;;;;;15.40;1.77;;;13.30;99.90;;;;;;5064327;28;20035;-94
2023/10/29 10:50:27;;;;;;;4.53;1.67;;;13.70;99.90;;;;;;5065266;28;20456;-95
2023/10/29 10:52:54;;;;;;;12.45;2.17;;;14.20;99.90;;;;;;5063257;28;20025;-95
2023/10/29 10:55:20;;;;;;;6.72;1.42;;;14.60;99.90;;;;;;5062871;28;20028;-94
2023/10/29 10:57:49;;;;;;;5.63;1.20;;;15.00;99.90;;;;;;5064407;28;20186;-94
2023/10/29 11:00:16;;;;;;;7.88;1.27;;;15.40;99.90;;;;;;5068681;28;20106;-94
2023/10/29 11:02:43;;;;;;;6.28;1.45;;;15.60;99.90;;;;;;5065901;28;20036;-95
2023/10/29 11:05:11;;;;;;;8.73;1.80;;;15.90;99.90;;;;;;5065293;28;20504;-94
2023/10/29 11:07:38;;;;;;;7.05;2.03;;;16.20;99.90;;;;;;5068653;28;20033;-93
2023/10/29 11:10:06;;;;;;;5.15;1.23;;;16.50;99.90;;;;;;5065743;28;20021;-95
2023/10/29 11:12:36;;;;;;;5.72;1.55;;;16.80;99.90;;;;;;5068111;28;20115;-95
2023/10/29 11:15:12;;;;;;;5.70;1.20;;;16.90;99.90;;;;;;5069207;28;20025;-95
2023/10/29 11:18:00;;;;;;;4.07;1.45;;;16.90;99.90;;;;;;5072129;28;20036;-96
2023/10/29 11:20:38;;;;;;;8.43;2.40;;;16.90;99.90;;;;;;5074806;28;20055;-96
2023/10/29 11:23:08;;;;;;;5.15;1.08;;;16.90;99.90;;;;;;5076047;28;20059;-92
2023/10/29 11:25:36;;;;;;;10.73;1.55;;;16.70;99.90;;;;;;5078592;28;20047;-95
2023/10/29 11:28:01;;;;;;;12.77;1.52;;;16.40;99.90;;;;;;5077145;28;20029;-96
2023/10/29 11:30:28;;;;;;;10.73;1.33;;;16.10;99.90;;;;;;5077715;28;20020;-94
2023/10/29 11:33:08;;;;;;;7.00;1.13;;;15.80;99.90;;;;;;5065383;28;20482;-96
2023/10/29 11:35:34;;;;;;;8.80;1.65;;;15.60;99.90;;;;;;5064857;28;20028;-93
2023/10/29 11:38:02;;;;;;;7.35;1.23;;;15.60;99.90;;;;;;5067780;28;20063;-95
2023/10/29 11:40:30;;;;;;;4.97;1.55;;;15.60;99.90;;;;;;5065066;28;20013;-95
2023/10/29 11:43:12;;;;;;;6.53;1.40;;;15.70;99.90;;;;;;5062304;28;20471;-96
2023/10/29 11:45:38;;;;;;;5.18;1.20;;;16.10;99.90;;;;;;5054918;28;20454;-91
2023/10/29 11:48:10;;;;;;;6.25;1.30;;;16.60;99.90;;;;;;5054794;28;20516;-94
2023/10/29 11:50:40;;;;;;;6.82;1.45;;;17.00;99.90;;;;;;5058055;28;20461;-95
2023/10/29 11:53:06;;;;;;;9.80;1.67;;;17.50;99.90;;;;;;5064559;28;20124;-93
2023/10/29 11:55:45;;;;;;;4.45;1.10;;;17.70;97.10;;;;;;5077149;28;20036;-96
2023/10/29 11:58:11;;;;;;;5.13;1.38;;;17.90;95.20;;;;;;5075416;28;20024;-96
2023/10/29 12:00:41;;;;;;;11.32;1.70;;;18.20;94.00;;;;;;5070135;28;20025;-96
2023/10/29 12:03:11;;;;;;;8.65;1.38;;;18.30;93.30;;;;;;5084851;28;20032;-96
2023/10/29 12:05:37;;;;;;;10.18;1.88;;;18.40;92.80;;;;;;5088007;28;20024;-94
2023/10/29 12:08:04;;;;;;;14.00;1.73;;;18.40;91.90;;;;;;5087752;28;20079;-94
2023/10/29 12:10:30;;;;;;;12.63;1.30;;;18.40;91.30;;;;;;5084337;28;20036;-94
2023/10/29 12:12:56;;;;;;;6.53;1.50;;;18.50;91.00;;;;;;5082298;28;20535;-95
2023/10/29 12:15:23;;;;;;;7.57;1.25;;;18.70;90.40;;;;;;5079112;28;20028;-96
2023/10/29 12:17:51;;;;;;;8.50;1.35;;;19.00;89.90;;;;;;5096293;28;20008;-94
2023/10/29 12:20:29;;;;;;;7.38;1.60;;;19.20;89.20;;;;;;5084996;28;20021;-95
2023/10/29 12:22:57;;;;;;;8.52;1.40;;;19.20;86.70;;;;;;5088971;28;20085;-95
2023/10/29 12:25:26;;;;;;;11.30;1.70;;;19.00;84.00;;;;;;5092816;28;20086;-94
2023/10/29 12:27:52;;;;;;;10.17;2.17;;;18.80;84.50;;;;;;5079210;28;20033;-94
2023/10/29 12:30:43;;;;;;;10.63;1.52;;;18.60;84.50;;;;;;5094043;28;20039;-91
2023/10/29 12:33:18;;;;;;;5.65;1.40;;;18.40;85.10;;;;;;5092164;28;20050;-95
2023/10/29 12:35:48;;;;;;;6.50;1.40;;;18.40;85.50;;;;;;5085724;28;20072;-92
2023/10/29 12:38:14;;;;;;;8.75;1.35;;;18.60;86.00;;;;;;5073772;28;20078;-95
2023/10/29 12:41:05;;;;;;;7.57;1.20;;;18.80;84.50;;;;;;5074781;28;20055;-92
2023/10/29 12:43:46;;;;;;;12.35;1.75;;;18.80;83.60;;;;;;5086883;28;20036;-93
2023/10/29 12:46:14;;;;;;;7.43;1.25;;;18.70;83.50;;;;;;5094784;28;20029;-95
2023/10/29 12:48:58;;;;;;;8.85;2.00;;;18.80;83.90;;;;;;5090548;28;20024;-95